createdAt,value
2023-02-23T00:01:22.607Z,3.80
2023-02-23T00:03:50.354Z,3.90
2023-02-23T00:06:20.097Z,3.90
2023-02-23T00:08:47.920Z,3.90
2023-02-23T00:11:17.232Z,4.00
2023-02-23T00:13:46.507Z,4.00
2023-02-23T00:16:16.596Z,4.00
2023-02-23T00:18:50.835Z,4.00
2023-02-23T00:21:20.972Z,4.00
2023-02-23T00:23:50.443Z,4.00
2023-02-23T00:26:20.782Z,4.00
2023-02-23T00:28:51.130Z,4.10
2023-02-23T00:31:19.195Z,4.20
2023-02-23T00:33:46.142Z,4.20
2023-02-23T00:36:14.993Z,4.20
2023-02-23T00:38:42.367Z,4.20
2023-02-23T00:41:20.596Z,4.30
2023-02-23T00:43:47.633Z,4.20
2023-02-23T00:46:21.174Z,4.20
2023-02-23T00:48:49.375Z,4.20
2023-02-23T00:51:18.220Z,4.10
2023-02-23T00:53:45.377Z,4.00
2023-02-23T00:56:14.365Z,4.00
2023-02-23T00:58:41.610Z,3.90
2023-02-23T01:01:13.258Z,3.90
2023-02-23T01:03:41.709Z,3.80
2023-02-23T01:06:11.650Z,3.60
2023-02-23T01:08:44.098Z,3.50
2023-02-23T01:11:21.214Z,3.50
2023-02-23T01:13:49.461Z,3.60
2023-02-23T01:16:18.841Z,3.60
2023-02-23T01:18:46.612Z,3.70
2023-02-23T01:21:22.767Z,3.60
2023-02-23T01:23:50.773Z,3.70
2023-02-23T01:26:23.270Z,3.60
2023-02-23T01:28:51.525Z,3.70
2023-02-23T01:31:19.690Z,3.70
2023-02-23T01:33:46.686Z,3.70
2023-02-23T01:36:13.726Z,3.80
2023-02-23T01:38:41.225Z,3.60
2023-02-23T01:41:09.068Z,3.70
2023-02-23T01:43:37.004Z,3.60
2023-02-23T01:46:04.171Z,3.60
2023-02-23T01:48:37.965Z,3.60
2023-02-23T01:51:14.721Z,3.60
2023-02-23T01:53:50.623Z,3.60
2023-02-23T01:56:23.619Z,3.70
2023-02-23T01:58:52.852Z,3.70
2023-02-23T02:01:20.041Z,3.70
2023-02-23T02:03:58.778Z,3.80
2023-02-23T02:06:30.403Z,3.80
2023-02-23T02:09:06.595Z,3.80
2023-02-23T02:11:38.897Z,3.80
2023-02-23T02:14:14.864Z,3.60
2023-02-23T02:16:52.732Z,3.60
2023-02-23T02:20:12.681Z,3.60
2023-02-23T02:22:57.530Z,3.70
2023-02-23T02:26:05.092Z,3.80
2023-02-23T02:28:50.572Z,3.70
2023-02-23T02:31:51.517Z,3.80
2023-02-23T02:34:42.725Z,3.70
2023-02-23T02:37:39.540Z,3.80
2023-02-23T02:40:32.409Z,3.80
2023-02-23T02:43:21.167Z,3.80
2023-02-23T02:46:02.052Z,3.90
2023-02-23T02:48:36.664Z,3.80
2023-02-23T02:51:24.843Z,3.90
2023-02-23T02:54:13.405Z,3.90
2023-02-23T02:56:42.926Z,3.90
2023-02-23T02:59:32.152Z,4.00
2023-02-23T03:02:18.148Z,4.10
2023-02-23T03:05:03.611Z,4.00
2023-02-23T03:08:14.663Z,4.00
2023-02-23T03:11:21.915Z,4.00
2023-02-23T03:14:29.851Z,3.90
2023-02-23T03:17:27.329Z,3.90
2023-02-23T03:20:19.480Z,3.90
2023-02-23T03:23:16.978Z,3.90
2023-02-23T03:26:15.610Z,3.80
2023-02-23T03:29:32.152Z,3.90
2023-02-23T03:32:37.222Z,3.90
2023-02-23T03:35:37.879Z,3.80
2023-02-23T03:38:33.084Z,3.70
2023-02-23T03:41:19.323Z,3.70
2023-02-23T03:44:13.493Z,3.60
2023-02-23T03:46:59.399Z,3.70
2023-02-23T03:49:50.312Z,3.70
2023-02-23T03:52:43.293Z,3.80
2023-02-23T03:55:35.109Z,3.80
2023-02-23T03:58:23.788Z,3.80
2023-02-23T04:01:15.061Z,3.80
2023-02-23T04:04:03.013Z,3.80
2023-02-23T04:06:54.483Z,3.90
2023-02-23T04:09:39.800Z,4.00
2023-02-23T04:12:33.192Z,4.00
2023-02-23T04:15:04.683Z,4.00
2023-02-23T04:17:32.318Z,4.00
2023-02-23T04:19:59.206Z,4.00
2023-02-23T04:22:25.937Z,4.10
2023-02-23T04:24:52.690Z,4.00
2023-02-23T04:27:20.386Z,3.90
2023-02-23T04:29:47.128Z,3.90
2023-02-23T04:32:16.554Z,3.90
2023-02-23T04:34:44.315Z,3.80
2023-02-23T04:37:11.291Z,3.70
2023-02-23T04:39:38.370Z,3.60
2023-02-23T04:42:05.215Z,3.60
2023-02-23T04:44:31.922Z,3.60
2023-02-23T04:46:58.899Z,3.50
2023-02-23T04:49:25.646Z,3.50
2023-02-23T04:51:52.368Z,3.40
2023-02-23T04:54:19.076Z,3.30
2023-02-23T04:56:45.874Z,3.40
2023-02-23T04:59:13.247Z,3.40
2023-02-23T05:01:40.139Z,3.40
2023-02-23T05:04:06.853Z,3.40
2023-02-23T05:06:34.143Z,3.40
2023-02-23T05:09:00.871Z,3.50
2023-02-23T05:11:27.771Z,3.40
2023-02-23T05:13:54.693Z,3.30
2023-02-23T05:16:21.736Z,3.40
2023-02-23T05:18:49.408Z,3.20
2023-02-23T05:21:16.525Z,3.20
2023-02-23T05:23:43.500Z,3.10
2023-02-23T05:26:12.640Z,3.20
2023-02-23T05:28:41.413Z,3.20
2023-02-23T05:31:08.795Z,3.30
2023-02-23T05:33:42.549Z,3.20
2023-02-23T05:36:16.312Z,3.20
2023-02-23T05:38:44.280Z,3.30
2023-02-23T05:41:13.511Z,3.20
2023-02-23T05:43:40.343Z,3.30
2023-02-23T05:46:12.130Z,3.30
2023-02-23T05:48:39.222Z,3.30
2023-02-23T05:51:10.800Z,3.30
2023-02-23T05:53:38.306Z,3.30
2023-02-23T05:56:06.684Z,3.40
2023-02-23T05:58:33.463Z,3.30
2023-02-23T06:01:00.371Z,3.30
2023-02-23T06:03:27.590Z,3.30
2023-02-23T06:05:56.950Z,3.40
2023-02-23T06:08:25.506Z,3.50
2023-02-23T06:10:53.290Z,3.40
2023-02-23T06:13:21.230Z,3.30
2023-02-23T06:15:49.520Z,3.30
2023-02-23T06:18:17.559Z,3.30
2023-02-23T06:20:45.793Z,3.30
2023-02-23T06:23:12.673Z,3.30
2023-02-23T06:25:40.822Z,3.30
2023-02-23T06:28:08.868Z,3.30
2023-02-23T06:30:36.113Z,3.30
2023-02-23T06:33:03.205Z,3.30
2023-02-23T06:35:30.001Z,3.40
2023-02-23T06:37:57.011Z,3.40
2023-02-23T06:40:23.919Z,3.40
2023-02-23T06:42:50.968Z,3.40
2023-02-23T06:45:19.297Z,3.40
2023-02-23T06:47:47.113Z,3.40
2023-02-23T06:50:14.930Z,3.40
2023-02-23T06:52:41.875Z,3.40
2023-02-23T06:55:10.135Z,3.50
2023-02-23T06:57:36.936Z,3.60
2023-02-23T07:00:04.687Z,3.60
2023-02-23T07:02:31.834Z,3.80
2023-02-23T07:04:58.891Z,3.80
2023-02-23T07:07:25.689Z,3.90
2023-02-23T07:09:52.396Z,3.90
2023-02-23T07:12:19.141Z,4.00
2023-02-23T07:14:45.905Z,4.10
2023-02-23T07:17:12.938Z,4.30
2023-02-23T07:19:39.829Z,4.40
2023-02-23T07:22:06.609Z,4.40
2023-02-23T07:24:33.355Z,4.50
2023-02-23T07:27:00.096Z,4.60
2023-02-23T07:29:28.163Z,4.60
2023-02-23T07:31:55.489Z,4.70
2023-02-23T07:34:22.353Z,4.70
2023-02-23T07:36:49.371Z,4.80
2023-02-23T07:39:16.217Z,4.90
2023-02-23T07:41:42.952Z,5.10
2023-02-23T07:44:09.766Z,5.10
2023-02-23T07:46:36.496Z,5.10
2023-02-23T07:49:03.405Z,5.30
2023-02-23T07:51:30.181Z,5.30
2023-02-23T07:53:56.924Z,5.40
2023-02-23T07:56:23.682Z,5.50
2023-02-23T07:58:50.471Z,5.60
2023-02-23T08:01:18.605Z,5.60
2023-02-23T08:03:49.461Z,5.70
2023-02-23T08:06:17.587Z,5.80
2023-02-23T08:08:44.567Z,5.80
2023-02-23T08:11:11.869Z,5.80
2023-02-23T08:13:39.053Z,5.90
2023-02-23T08:16:06.104Z,5.90
2023-02-23T08:18:33.068Z,5.90
2023-02-23T08:21:04.314Z,6.10
2023-02-23T08:23:32.474Z,6.30
2023-02-23T08:26:00.863Z,6.30
2023-02-23T08:28:28.723Z,6.50
2023-02-23T08:30:55.665Z,6.60
2023-02-23T08:33:22.691Z,6.80
2023-02-23T08:35:49.443Z,6.90
2023-02-23T08:38:18.303Z,7.00
2023-02-23T08:40:45.300Z,7.10
2023-02-23T08:43:12.053Z,7.30
2023-02-23T08:45:39.565Z,7.50
2023-02-23T08:48:07.619Z,7.60
2023-02-23T08:50:34.811Z,7.70
2023-02-23T08:53:01.632Z,7.90
2023-02-23T08:55:28.555Z,8.00
2023-02-23T08:57:55.325Z,8.30
2023-02-23T09:00:22.540Z,8.40
2023-02-23T09:02:49.272Z,8.40
2023-02-23T09:05:16.895Z,8.70
2023-02-23T09:07:45.279Z,8.80
2023-02-23T09:10:19.782Z,8.80
2023-02-23T09:12:46.585Z,8.90
2023-02-23T09:15:13.339Z,8.90
2023-02-23T09:17:42.789Z,8.90
2023-02-23T09:20:13.460Z,9.20
2023-02-23T09:22:41.945Z,9.30
2023-02-23T09:25:10.384Z,9.40
2023-02-23T09:27:37.105Z,9.50
2023-02-23T09:30:04.820Z,9.60
2023-02-23T09:32:32.179Z,9.80
2023-02-23T09:34:58.979Z,9.80
2023-02-23T09:37:25.748Z,9.80
2023-02-23T09:39:52.512Z,9.80
2023-02-23T09:42:41.377Z,9.90
2023-02-23T09:45:48.398Z,10.00
2023-02-23T09:48:20.514Z,10.20
2023-02-23T09:50:51.037Z,10.30
2023-02-23T09:53:36.270Z,10.40
2023-02-23T09:56:26.466Z,10.50
2023-02-23T09:58:53.302Z,10.50
2023-02-23T10:01:58.459Z,10.50
2023-02-23T10:04:36.348Z,10.70
2023-02-23T10:07:12.870Z,10.50
2023-02-23T10:10:00.144Z,10.40
2023-02-23T10:12:26.916Z,10.50
2023-02-23T10:15:18.521Z,10.40
2023-02-23T10:18:13.721Z,10.40
2023-02-23T10:21:04.681Z,10.50
2023-02-23T10:23:42.804Z,10.60
2023-02-23T10:26:16.398Z,10.60
2023-02-23T10:28:44.544Z,10.70
2023-02-23T10:31:54.149Z,10.80
2023-02-23T10:34:23.517Z,11.00
2023-02-23T10:37:06.197Z,11.20
2023-02-23T10:39:34.021Z,11.20
2023-02-23T10:42:07.759Z,11.20
2023-02-23T10:44:34.650Z,11.20
2023-02-23T10:47:21.157Z,11.10
2023-02-23T10:49:51.350Z,11.10
2023-02-23T10:52:33.245Z,11.10
2023-02-23T10:55:00.545Z,11.10
2023-02-23T10:57:30.936Z,11.10
2023-02-23T11:00:08.664Z,11.20
2023-02-23T11:02:36.520Z,11.20
2023-02-23T11:05:05.953Z,11.10
2023-02-23T11:07:34.443Z,11.10
2023-02-23T11:10:26.434Z,11.10
2023-02-23T11:12:53.288Z,11.10
2023-02-23T11:15:46.489Z,11.10
2023-02-23T11:18:22.769Z,11.10
2023-02-23T11:20:51.109Z,11.20
2023-02-23T11:23:31.685Z,11.10
2023-02-23T11:26:06.149Z,10.90
2023-02-23T11:28:41.344Z,11.00
2023-02-23T11:31:23.553Z,10.80
2023-02-23T11:33:53.665Z,10.80
2023-02-23T11:36:26.805Z,10.80
2023-02-23T11:39:23.456Z,10.80
2023-02-23T11:42:14.852Z,10.90
2023-02-23T11:44:42.818Z,10.90
2023-02-23T11:47:19.218Z,10.90
2023-02-23T11:49:48.520Z,10.90
2023-02-23T11:52:18.757Z,10.90
2023-02-23T11:54:54.298Z,11.00
2023-02-23T11:57:23.864Z,10.90
2023-02-23T11:59:51.953Z,11.10
2023-02-23T12:02:25.692Z,11.20
2023-02-23T12:05:01.668Z,11.20
2023-02-23T12:08:06.831Z,11.30
2023-02-23T12:11:05.408Z,11.20
2023-02-23T12:13:37.970Z,11.30
2023-02-23T12:16:29.511Z,11.30
2023-02-23T12:19:14.815Z,11.40
2023-02-23T12:21:47.470Z,11.50
2023-02-23T12:24:26.168Z,11.60
2023-02-23T12:27:06.306Z,11.70
2023-02-23T12:29:54.742Z,11.90
2023-02-23T12:32:26.854Z,12.00
2023-02-23T12:34:59.213Z,12.10
2023-02-23T12:37:37.002Z,12.10
2023-02-23T12:40:21.464Z,12.10
2023-02-23T12:43:12.774Z,12.30
2023-02-23T12:45:48.991Z,12.30
2023-02-23T12:48:18.513Z,12.40
2023-02-23T12:50:53.556Z,12.30
2023-02-23T12:53:37.965Z,12.20
2023-02-23T12:56:26.425Z,12.20
2023-02-23T12:59:14.993Z,12.20
2023-02-23T13:02:08.542Z,12.30
2023-02-23T13:04:51.809Z,12.30
2023-02-23T13:07:41.960Z,12.10
2023-02-23T13:10:32.054Z,12.30
2023-02-23T13:13:36.465Z,12.30
2023-02-23T13:16:30.574Z,12.20
2023-02-23T13:19:29.326Z,12.10
2023-02-23T13:22:18.667Z,12.10
2023-02-23T13:24:49.418Z,12.20
2023-02-23T13:27:21.614Z,12.30
2023-02-23T13:29:52.660Z,12.30
2023-02-23T13:32:25.330Z,12.40
2023-02-23T13:34:56.481Z,12.50
2023-02-23T13:37:45.468Z,12.50
2023-02-23T13:40:30.978Z,12.70
2023-02-23T13:43:11.592Z,12.80
2023-02-23T13:45:54.994Z,12.90
2023-02-23T13:48:57.481Z,12.80
2023-02-23T13:51:37.909Z,13.00
2023-02-23T13:54:22.883Z,13.30
2023-02-23T13:56:56.248Z,13.40
2023-02-23T13:59:29.311Z,13.50
2023-02-23T14:01:56.889Z,13.80
2023-02-23T14:04:35.426Z,14.00
2023-02-23T14:07:12.780Z,14.10
2023-02-23T14:10:07.203Z,14.00
2023-02-23T14:12:39.515Z,13.80
2023-02-23T14:15:25.221Z,13.40
2023-02-23T14:18:21.014Z,13.30
2023-02-23T14:21:09.652Z,13.10
2023-02-23T14:24:08.423Z,13.00
2023-02-23T14:26:41.529Z,12.80
2023-02-23T14:29:27.836Z,12.70
2023-02-23T14:32:03.564Z,12.60
2023-02-23T14:34:47.141Z,12.40
2023-02-23T14:37:39.747Z,12.20
2023-02-23T14:40:20.342Z,12.10
2023-02-23T14:42:51.932Z,12.10
2023-02-23T14:45:28.715Z,12.00
2023-02-23T14:48:01.443Z,11.90
2023-02-23T14:50:37.501Z,11.90
2023-02-23T14:53:10.640Z,11.80
2023-02-23T14:55:41.930Z,11.60
2023-02-23T14:58:33.375Z,11.60
2023-02-23T15:01:00.900Z,11.60
2023-02-23T15:03:27.743Z,11.60
2023-02-23T15:06:00.301Z,11.60
2023-02-23T15:08:29.310Z,11.60
2023-02-23T15:11:04.194Z,11.60
2023-02-23T15:16:09.759Z,11.60
2023-02-23T15:19:14.047Z,11.60
2023-02-23T15:21:59.185Z,11.60
2023-02-23T15:24:30.676Z,11.40
2023-02-23T15:26:58.109Z,11.40
2023-02-23T15:29:31.072Z,11.30
2023-02-23T15:32:17.903Z,11.40
2023-02-23T15:34:45.547Z,11.40
2023-02-23T15:37:15.653Z,11.30
2023-02-23T15:39:53.129Z,11.30
2023-02-23T15:42:28.043Z,11.30
2023-02-23T15:45:04.536Z,11.30
2023-02-23T15:47:34.844Z,11.30
2023-02-23T15:50:36.577Z,11.30
2023-02-23T15:53:13.674Z,11.30
2023-02-23T15:55:43.685Z,11.20
2023-02-23T15:58:19.068Z,11.20
2023-02-23T16:00:51.426Z,11.10
2023-02-23T16:03:33.658Z,11.00
2023-02-23T16:06:06.663Z,10.80
2023-02-23T16:08:35.905Z,10.80
2023-02-23T16:11:16.056Z,10.80
2023-02-23T16:13:45.275Z,10.70
2023-02-23T16:16:20.377Z,10.60
2023-02-23T16:18:52.996Z,10.50
2023-02-23T16:21:24.944Z,10.50
2023-02-23T16:23:54.384Z,10.40
2023-02-23T16:26:37.265Z,10.30
2023-02-23T16:29:05.079Z,10.20
2023-02-23T16:31:43.473Z,10.20
2023-02-23T16:34:30.252Z,10.10
2023-02-23T16:37:03.476Z,10.10
2023-02-23T16:39:33.452Z,10.10
2023-02-23T16:42:00.553Z,10.10
2023-02-23T16:44:41.353Z,10.00
2023-02-23T16:47:09.457Z,10.00
2023-02-23T16:49:36.170Z,10.00
2023-02-23T16:52:15.693Z,10.00
2023-02-23T16:54:42.447Z,10.00
2023-02-23T16:57:22.437Z,9.90
2023-02-23T16:59:51.008Z,9.90
2023-02-23T17:02:19.089Z,9.80
2023-02-23T17:04:49.748Z,9.80
2023-02-23T17:07:18.838Z,9.80
2023-02-23T17:09:45.692Z,9.80
2023-02-23T17:12:18.386Z,9.70
2023-02-23T17:14:49.233Z,9.60
2023-02-23T17:17:17.872Z,9.50
2023-02-23T17:19:46.565Z,9.50
2023-02-23T17:22:13.838Z,9.50
2023-02-23T17:24:41.891Z,9.40
2023-02-23T17:27:08.920Z,9.50
2023-02-23T17:29:35.679Z,9.40
2023-02-23T17:32:02.760Z,9.30
2023-02-23T17:34:30.313Z,9.20
2023-02-23T17:36:57.656Z,9.20
2023-02-23T17:39:28.119Z,9.20
2023-02-23T17:41:55.502Z,9.20
2023-02-23T17:44:22.200Z,9.10
2023-02-23T17:46:48.998Z,9.10
2023-02-23T17:49:15.841Z,9.10
2023-02-23T17:51:42.672Z,9.10
2023-02-23T17:54:09.429Z,9.10
2023-02-23T17:56:36.296Z,9.00
2023-02-23T17:59:03.074Z,9.10
2023-02-23T18:01:29.844Z,9.10
2023-02-23T18:03:58.538Z,9.10
2023-02-23T18:06:25.792Z,9.20
2023-02-23T18:08:52.523Z,9.20
2023-02-23T18:11:19.797Z,9.20
2023-02-23T18:13:48.066Z,9.20
2023-02-23T18:16:15.967Z,9.20
2023-02-23T18:18:46.034Z,9.20
2023-02-23T18:21:19.280Z,9.30
2023-02-23T18:23:46.200Z,9.30
2023-02-23T18:26:16.548Z,9.30
2023-02-23T18:28:45.650Z,9.30
2023-02-23T18:31:21.650Z,9.30
2023-02-23T18:33:55.226Z,9.30
2023-02-23T18:36:23.835Z,9.30
2023-02-23T18:38:50.845Z,9.30
2023-02-23T18:41:18.676Z,9.30
2023-02-23T18:43:45.491Z,9.20
2023-02-23T18:46:13.767Z,9.30
2023-02-23T18:48:41.315Z,9.20
2023-02-23T18:51:12.307Z,9.20
2023-02-23T18:53:39.065Z,9.20
2023-02-23T18:56:14.766Z,9.20
2023-02-23T18:58:44.509Z,9.20
2023-02-23T19:01:17.844Z,9.10
2023-02-23T19:03:45.271Z,9.10
2023-02-23T19:06:13.188Z,9.10
2023-02-23T19:08:41.934Z,9.10
2023-02-23T19:11:09.761Z,9.10
2023-02-23T19:13:38.082Z,9.10
2023-02-23T19:16:06.485Z,9.10
2023-02-23T19:18:35.503Z,9.10
2023-02-23T19:21:03.697Z,9.10
2023-02-23T19:23:30.685Z,9.00
2023-02-23T19:25:58.883Z,8.90
2023-02-23T19:28:27.184Z,9.00
2023-02-23T19:31:05.796Z,8.90
2023-02-23T19:33:33.314Z,8.90
2023-02-23T19:36:01.389Z,8.90
2023-02-23T19:38:29.127Z,8.90
2023-02-23T19:40:57.206Z,8.80
2023-02-23T19:43:24.798Z,8.80
2023-02-23T19:45:51.828Z,8.70
2023-02-23T19:48:18.675Z,8.60
2023-02-23T19:50:47.966Z,8.50
2023-02-23T19:53:16.026Z,8.40
2023-02-23T19:55:43.348Z,8.30
2023-02-23T19:58:10.226Z,8.20
2023-02-23T20:00:37.356Z,8.10
2023-02-23T20:03:07.281Z,8.10
2023-02-23T20:05:42.293Z,8.00
2023-02-23T20:08:09.584Z,7.90
2023-02-23T20:10:38.911Z,7.80
2023-02-23T20:13:05.996Z,7.80
2023-02-23T20:15:32.747Z,7.70
2023-02-23T20:17:59.463Z,7.70
2023-02-23T20:20:29.078Z,7.60
2023-02-23T20:22:56.014Z,7.60
2023-02-23T20:25:23.322Z,7.60
2023-02-23T20:27:50.702Z,7.50
2023-02-23T20:30:18.214Z,7.40
2023-02-23T20:32:45.661Z,7.30
2023-02-23T20:35:15.145Z,6.90
2023-02-23T20:37:42.545Z,6.80
2023-02-23T20:40:19.980Z,6.70
2023-02-23T20:42:48.043Z,6.70
2023-02-23T20:45:18.372Z,6.70
2023-02-23T20:47:45.973Z,6.70
2023-02-23T20:50:14.192Z,6.70
2023-02-23T20:52:44.588Z,6.60
2023-02-23T20:58:54.219Z,6.60
2023-02-23T21:01:24.053Z,6.60
2023-02-23T21:03:52.309Z,6.70
2023-02-23T21:06:20.545Z,6.70
2023-02-23T21:08:48.955Z,6.70
2023-02-23T21:11:17.415Z,6.70
2023-02-23T21:13:44.966Z,6.70
2023-02-23T21:16:16.978Z,6.60
2023-02-23T21:18:44.203Z,6.70
2023-02-23T21:21:15.354Z,6.60
2023-02-23T21:23:43.619Z,6.60
2023-02-23T21:26:13.902Z,6.60
2023-02-23T21:28:44.576Z,6.60
2023-02-23T21:31:12.910Z,6.70
2023-02-23T21:33:41.244Z,6.70
2023-02-23T21:36:12.584Z,6.60
2023-02-23T21:38:44.019Z,6.60
2023-02-23T21:41:12.411Z,6.70
2023-02-23T21:43:41.396Z,6.60
2023-02-23T21:46:10.372Z,6.60
2023-02-23T21:48:37.234Z,6.80
2023-02-23T21:51:07.229Z,6.80
2023-02-23T21:53:35.132Z,6.70
2023-02-23T21:56:06.931Z,6.70
2023-02-23T21:58:33.876Z,6.80
2023-02-23T22:01:00.644Z,6.80
2023-02-23T22:03:29.260Z,6.80
2023-02-23T22:05:56.188Z,6.90
2023-02-23T22:08:22.911Z,6.90
2023-02-23T22:10:49.668Z,6.90
2023-02-23T22:13:16.397Z,6.90
2023-02-23T22:15:43.240Z,6.90
2023-02-23T22:18:14.043Z,6.80
2023-02-23T22:20:45.230Z,6.80
2023-02-23T22:23:11.967Z,6.90
2023-02-23T22:25:38.737Z,6.90
2023-02-23T22:28:08.937Z,6.80
2023-02-23T22:30:35.682Z,6.80
2023-02-23T22:33:02.610Z,6.80
2023-02-23T22:35:29.457Z,6.80
2023-02-23T22:37:56.171Z,6.80
2023-02-23T22:40:23.929Z,6.80
2023-02-23T22:42:50.736Z,6.70
2023-02-23T22:45:18.116Z,6.80
2023-02-23T22:47:45.114Z,6.80
2023-02-23T22:50:19.014Z,6.80
2023-02-23T22:52:46.817Z,6.80
2023-02-23T22:55:13.609Z,6.80
2023-02-23T22:57:40.536Z,6.80
2023-02-23T23:00:10.366Z,6.80
2023-02-23T23:02:37.169Z,6.70
2023-02-23T23:05:04.334Z,6.70
2023-02-23T23:07:31.433Z,6.50
2023-02-23T23:09:58.688Z,6.50
2023-02-23T23:12:27.844Z,6.50
2023-02-23T23:15:01.305Z,6.40
2023-02-23T23:17:31.717Z,6.40
2023-02-23T23:20:00.288Z,6.30
2023-02-23T23:22:27.548Z,6.40
2023-02-23T23:24:54.348Z,6.40
2023-02-23T23:27:21.482Z,6.50
2023-02-23T23:29:48.909Z,6.60
2023-02-23T23:32:18.458Z,6.70
2023-02-23T23:34:47.944Z,6.60
2023-02-23T23:37:16.815Z,6.70
2023-02-23T23:39:43.972Z,6.60
2023-02-23T23:42:10.946Z,6.70
2023-02-23T23:44:37.926Z,6.70
2023-02-23T23:47:05.360Z,6.70
2023-02-23T23:49:37.732Z,6.70
2023-02-23T23:52:05.341Z,6.80
2023-02-23T23:54:37.456Z,6.80
2023-02-23T23:57:05.749Z,6.80
2023-02-23T23:59:34.424Z,6.80
